createdAt,value
2018-06-24T00:01:56.581Z,10.37
2018-06-24T00:04:24.902Z,12.77
2018-06-24T00:06:53.149Z,10.50
2018-06-24T00:09:21.294Z,8.23
2018-06-24T00:11:49.508Z,12.00
2018-06-24T00:14:17.773Z,10.40
2018-06-24T00:16:46.106Z,8.57
2018-06-24T00:19:14.298Z,8.27
2018-06-24T00:21:42.432Z,10.33
2018-06-24T00:24:10.651Z,9.60
2018-06-24T00:26:39.101Z,10.27
2018-06-24T00:29:07.312Z,6.57
2018-06-24T00:31:35.687Z,8.47
2018-06-24T00:34:03.855Z,7.20
2018-06-24T00:36:32.145Z,9.57
2018-06-24T00:39:00.335Z,6.17
2018-06-24T00:41:28.506Z,7.37
2018-06-24T00:43:56.730Z,7.40
2018-06-24T00:46:25.032Z,6.07
2018-06-24T00:48:53.248Z,6.97
2018-06-24T00:51:21.462Z,3.63
2018-06-24T00:53:49.675Z,3.00
2018-06-24T00:56:17.873Z,4.63
2018-06-24T00:58:46.028Z,3.40
2018-06-24T01:01:14.304Z,5.20
2018-06-24T01:03:42.457Z,4.47
2018-06-24T01:06:10.806Z,5.90
2018-06-24T01:08:39.022Z,3.07
2018-06-24T01:11:07.213Z,4.67
2018-06-24T01:13:35.473Z,5.73
2018-06-24T01:16:04.789Z,5.78
2018-06-24T01:18:32.960Z,4.77
2018-06-24T01:21:01.147Z,6.73
2018-06-24T01:23:29.369Z,3.73
2018-06-24T01:25:57.698Z,3.73
2018-06-24T01:28:25.912Z,4.93
2018-06-24T01:30:54.133Z,6.13
2018-06-24T01:33:22.373Z,6.10
2018-06-24T01:35:50.724Z,7.57
2018-06-24T01:38:18.913Z,4.93
2018-06-24T01:40:47.182Z,1.93
2018-06-24T01:43:15.350Z,6.03
2018-06-24T01:45:43.570Z,5.70
2018-06-24T01:48:11.773Z,3.63
2018-06-24T01:50:39.927Z,3.20
2018-06-24T01:53:08.110Z,4.17
2018-06-24T01:55:36.273Z,4.33
2018-06-24T01:58:04.787Z,4.07
2018-06-24T02:00:33.067Z,2.27
2018-06-24T02:03:01.272Z,5.97
2018-06-24T02:05:29.602Z,4.13
2018-06-24T02:07:57.834Z,3.63
2018-06-24T02:10:26.066Z,4.27
2018-06-24T02:12:54.263Z,4.10
2018-06-24T02:15:23.572Z,5.60
2018-06-24T02:17:51.746Z,5.80
2018-06-24T02:20:19.943Z,5.13
2018-06-24T02:22:48.104Z,6.90
2018-06-24T02:25:47.326Z,6.90
2018-06-24T02:28:15.498Z,4.23
2018-06-24T02:30:43.725Z,4.97
2018-06-24T02:33:11.872Z,5.37
2018-06-24T02:35:40.218Z,6.50
2018-06-24T02:38:08.448Z,3.97
2018-06-24T02:40:36.750Z,5.37
2018-06-24T02:43:04.960Z,3.47
2018-06-24T02:45:33.401Z,2.80
2018-06-24T02:48:01.565Z,4.70
2018-06-24T02:50:29.772Z,5.87
2018-06-24T02:52:57.924Z,4.67
2018-06-24T02:55:26.263Z,3.50
2018-06-24T02:57:54.445Z,3.50
2018-06-24T03:00:22.605Z,4.10
2018-06-24T03:02:50.765Z,5.73
2018-06-24T03:05:19.120Z,2.67
2018-06-24T03:07:47.398Z,5.37
2018-06-24T03:10:15.653Z,3.53
2018-06-24T03:12:43.891Z,2.87
2018-06-24T03:15:12.284Z,2.57
2018-06-24T03:17:40.474Z,2.80
2018-06-24T03:20:08.495Z,3.40
2018-06-24T03:22:36.670Z,4.07
2018-06-24T03:25:05.073Z,2.30
2018-06-24T03:27:33.263Z,5.23
2018-06-24T03:30:01.493Z,3.13
2018-06-24T03:32:29.637Z,2.17
2018-06-24T03:34:57.873Z,5.80
2018-06-24T03:37:26.034Z,4.73
2018-06-24T03:39:54.341Z,3.90
2018-06-24T03:42:22.522Z,3.97
2018-06-24T03:44:50.857Z,4.17
2018-06-24T03:47:19.054Z,5.33
2018-06-24T03:49:47.237Z,5.30
2018-06-24T03:52:15.429Z,3.30
2018-06-24T03:54:43.847Z,3.43
2018-06-24T03:57:12.078Z,5.70
2018-06-24T03:59:40.043Z,3.20
2018-06-24T04:02:08.267Z,3.03
2018-06-24T04:04:36.538Z,3.20
2018-06-24T04:07:04.771Z,3.50
2018-06-24T04:09:32.953Z,5.03
2018-06-24T04:12:01.096Z,4.17
2018-06-24T04:14:29.448Z,3.27
2018-06-24T04:16:57.673Z,4.47
2018-06-24T04:19:25.844Z,6.43
2018-06-24T04:21:54.034Z,6.57
2018-06-24T04:24:22.282Z,3.27
2018-06-24T04:26:50.537Z,3.37
2018-06-24T04:29:18.727Z,6.70
2018-06-24T04:31:46.922Z,9.73
2018-06-24T04:34:15.116Z,5.40
2018-06-24T04:36:43.295Z,3.57
2018-06-24T04:39:12.357Z,2.73
2018-06-24T04:41:40.570Z,3.00
2018-06-24T04:44:08.746Z,6.83
2018-06-24T04:46:37.057Z,8.47
2018-06-24T04:49:05.295Z,3.20
2018-06-24T04:51:33.494Z,4.97
2018-06-24T04:54:01.753Z,4.80
2018-06-24T04:56:30.088Z,6.03
2018-06-24T04:58:58.233Z,2.37
2018-06-24T05:01:26.409Z,5.43
2018-06-24T05:03:54.576Z,6.07
2018-06-24T05:06:22.825Z,4.13
2018-06-24T05:08:51.315Z,5.77
2018-06-24T05:11:19.507Z,7.00
2018-06-24T05:13:47.459Z,7.93
2018-06-24T05:16:15.694Z,5.67
2018-06-24T05:18:43.876Z,2.53
2018-06-24T05:21:12.056Z,6.20
2018-06-24T05:23:40.269Z,5.33
2018-06-24T05:26:08.709Z,6.27
2018-06-24T05:28:36.912Z,6.37
2018-06-24T05:31:05.131Z,6.10
2018-06-24T05:33:33.347Z,7.73
2018-06-24T05:36:02.800Z,5.27
2018-06-24T05:38:30.936Z,5.17
2018-06-24T05:40:59.193Z,5.17
2018-06-24T05:43:27.417Z,4.90
2018-06-24T05:45:55.653Z,4.50
2018-06-24T05:48:23.871Z,6.30
2018-06-24T05:50:52.148Z,4.57
2018-06-24T05:53:20.349Z,3.53
2018-06-24T05:55:50.039Z,3.33
2018-06-24T05:58:18.165Z,3.07
2018-06-24T06:00:46.450Z,3.37
2018-06-24T06:03:14.614Z,4.13
2018-06-24T06:05:42.743Z,4.00
2018-06-24T06:08:10.991Z,3.93
2018-06-24T06:10:39.510Z,3.95
2018-06-24T06:13:07.701Z,5.23
2018-06-24T06:15:36.052Z,5.67
2018-06-24T06:18:04.343Z,6.93
2018-06-24T06:20:32.566Z,5.33
2018-06-24T06:23:00.823Z,4.23
2018-06-24T06:25:29.128Z,4.20
2018-06-24T06:27:57.326Z,4.73
2018-06-24T06:30:25.569Z,5.20
2018-06-24T06:32:53.736Z,5.10
2018-06-24T06:35:22.022Z,7.13
2018-06-24T06:37:50.264Z,2.13
2018-06-24T06:40:18.478Z,2.10
2018-06-24T06:42:46.659Z,3.97
2018-06-24T06:45:15.251Z,6.37
2018-06-24T06:47:43.287Z,3.17
2018-06-24T06:50:11.495Z,4.13
2018-06-24T06:52:39.731Z,6.77
2018-06-24T06:55:09.946Z,6.33
2018-06-24T06:57:37.908Z,3.70
2018-06-24T07:00:06.215Z,3.70
2018-06-24T07:02:34.381Z,7.33
2018-06-24T07:05:02.697Z,5.83
2018-06-24T07:07:30.963Z,4.20
2018-06-24T07:09:59.222Z,3.47
2018-06-24T07:12:27.411Z,4.80
2018-06-24T07:14:55.872Z,4.07
2018-06-24T07:17:24.914Z,6.20
2018-06-24T07:19:53.141Z,6.33
2018-06-24T07:22:21.346Z,7.20
2018-06-24T07:24:49.565Z,5.27
2018-06-24T07:27:17.767Z,4.90
2018-06-24T07:29:45.997Z,3.80
2018-06-24T07:32:14.181Z,5.57
2018-06-24T07:34:42.386Z,4.97
2018-06-24T07:37:10.681Z,4.13
2018-06-24T07:39:38.892Z,3.43
2018-06-24T07:42:07.111Z,3.43
2018-06-24T07:44:35.383Z,8.30
2018-06-24T07:47:03.624Z,2.30
2018-06-24T07:49:31.820Z,2.03
2018-06-24T07:52:00.009Z,4.87
2018-06-24T07:54:28.280Z,5.50
2018-06-24T07:56:56.555Z,3.93
2018-06-24T07:59:24.782Z,3.53
2018-06-24T08:01:53.316Z,6.73
2018-06-24T08:04:21.479Z,9.70
2018-06-24T08:06:49.801Z,10.73
2018-06-24T08:09:17.988Z,4.83
2018-06-24T08:11:46.265Z,4.80
2018-06-24T08:14:14.535Z,5.13
2018-06-24T08:16:42.833Z,6.77
2018-06-24T08:19:11.037Z,4.00
2018-06-24T08:21:39.375Z,4.07
2018-06-24T08:24:07.556Z,7.53
2018-06-24T08:26:36.833Z,8.33
2018-06-24T08:29:05.019Z,4.83
2018-06-24T08:31:33.360Z,4.57
2018-06-24T08:34:01.566Z,5.13
2018-06-24T08:36:29.909Z,5.80
2018-06-24T08:38:58.156Z,6.40
2018-06-24T08:41:26.360Z,7.47
2018-06-24T08:43:54.548Z,3.70
2018-06-24T08:46:22.748Z,5.33
2018-06-24T08:48:51.011Z,4.60
2018-06-24T08:51:19.152Z,3.43
2018-06-24T08:53:47.308Z,3.17
2018-06-24T08:56:15.725Z,3.13
2018-06-24T08:58:43.934Z,5.20
2018-06-24T09:01:12.164Z,4.27
2018-06-24T09:03:40.338Z,3.97
2018-06-24T09:06:08.599Z,4.73
2018-06-24T09:08:36.983Z,2.50
2018-06-24T09:11:05.456Z,2.90
2018-06-24T09:13:33.751Z,5.03
2018-06-24T09:16:02.162Z,2.10
2018-06-24T09:18:30.427Z,4.17
2018-06-24T09:20:58.656Z,4.70
2018-06-24T09:23:26.893Z,5.07
2018-06-24T09:25:57.300Z,3.63
2018-06-24T09:28:25.564Z,4.93
2018-06-24T09:30:53.769Z,4.90
2018-06-24T09:33:21.920Z,2.33
2018-06-24T09:35:50.136Z,3.10
2018-06-24T09:38:18.538Z,2.87
2018-06-24T09:40:47.043Z,4.83
2018-06-24T09:43:15.356Z,4.13
2018-06-24T09:45:43.645Z,4.27
2018-06-24T09:48:11.934Z,3.60
2018-06-24T09:50:40.136Z,5.37
2018-06-24T09:53:08.480Z,5.93
2018-06-24T09:55:36.759Z,4.10
2018-06-24T09:58:05.221Z,3.63
2018-06-24T10:00:33.425Z,3.60
2018-06-24T10:03:01.636Z,4.00
2018-06-24T10:05:30.938Z,2.07
2018-06-24T10:07:59.140Z,3.20
2018-06-24T10:10:27.353Z,4.43
2018-06-24T10:12:55.636Z,3.23
2018-06-24T10:15:23.952Z,2.57
2018-06-24T10:17:52.243Z,3.47
2018-06-24T10:20:20.464Z,5.83
2018-06-24T10:22:49.638Z,4.97
2018-06-24T10:25:17.939Z,2.97
2018-06-24T10:27:46.463Z,3.60
2018-06-24T10:30:14.830Z,3.87
2018-06-24T10:32:43.156Z,3.07
2018-06-24T10:35:15.464Z,3.93
2018-06-24T10:37:45.756Z,4.67
2018-06-24T10:40:14.133Z,6.97
2018-06-24T10:42:42.692Z,3.73
2018-06-24T10:45:11.317Z,4.33
2018-06-24T10:47:39.687Z,3.70
2018-06-24T10:50:08.193Z,5.87
2018-06-24T10:52:36.522Z,5.97
2018-06-24T10:55:05.406Z,4.57
2018-06-24T10:57:34.129Z,7.63
2018-06-24T11:00:04.194Z,4.47
2018-06-24T11:02:32.672Z,5.27
2018-06-24T11:05:01.022Z,5.97
2018-06-24T11:07:29.352Z,9.00
2018-06-24T11:09:57.745Z,3.73
2018-06-24T11:12:26.047Z,6.15
2018-06-24T11:14:54.329Z,3.07
2018-06-24T11:17:22.727Z,5.03
2018-06-24T11:19:50.948Z,5.30
2018-06-24T11:22:19.132Z,4.87
2018-06-24T11:24:47.440Z,3.20
2018-06-24T11:27:15.682Z,3.23
2018-06-24T11:29:43.961Z,4.57
2018-06-24T11:32:12.207Z,2.93
2018-06-24T11:34:40.582Z,3.87
2018-06-24T11:37:08.843Z,6.87
2018-06-24T11:39:36.977Z,6.47
2018-06-24T11:42:05.449Z,5.20
2018-06-24T11:44:33.420Z,3.90
2018-06-24T11:47:01.657Z,3.50
2018-06-24T11:49:30.205Z,3.07
2018-06-24T11:51:58.534Z,3.00
2018-06-24T11:54:27.145Z,2.50
2018-06-24T11:56:55.419Z,3.63
2018-06-24T11:59:23.600Z,5.13
2018-06-24T12:01:51.814Z,2.73
2018-06-24T12:04:20.123Z,5.37
2018-06-24T12:06:48.571Z,3.30
2018-06-24T12:09:16.817Z,2.83
2018-06-24T12:11:44.995Z,2.37
2018-06-24T12:14:13.191Z,4.27
2018-06-24T12:16:41.642Z,5.63
2018-06-24T12:19:09.987Z,5.07
2018-06-24T12:21:37.965Z,4.87
2018-06-24T12:24:06.224Z,4.27
2018-06-24T12:26:34.651Z,6.23
2018-06-24T12:29:02.889Z,5.40
2018-06-24T12:31:31.087Z,6.00
2018-06-24T12:33:59.270Z,4.23
2018-06-24T12:36:43.232Z,3.23
2018-06-24T12:39:13.428Z,3.87
2018-06-24T12:41:41.661Z,2.97
2018-06-24T12:44:10.430Z,4.27
2018-06-24T12:46:38.675Z,2.40
2018-06-24T12:49:08.403Z,3.80
2018-06-24T12:51:37.822Z,3.57
2018-06-24T12:54:06.612Z,3.37
2018-06-24T12:56:38.588Z,3.23
2018-06-24T12:59:08.900Z,3.37
2018-06-24T13:01:38.880Z,5.13
2018-06-24T13:04:06.968Z,5.03
2018-06-24T13:06:35.352Z,4.47
2018-06-24T13:09:04.958Z,7.17
2018-06-24T13:11:33.216Z,3.37
2018-06-24T13:14:01.503Z,5.90
2018-06-24T13:16:30.073Z,4.40
2018-06-24T13:18:58.445Z,3.03
2018-06-24T13:21:26.778Z,4.23
2018-06-24T13:23:55.110Z,3.93
2018-06-24T13:26:23.721Z,4.37
2018-06-24T13:28:52.072Z,4.80
2018-06-24T13:31:20.539Z,5.63
2018-06-24T13:33:48.840Z,1.80
2018-06-24T13:36:17.226Z,4.50
2018-06-24T13:38:45.514Z,4.40
2018-06-24T13:41:13.707Z,7.87
2018-06-24T13:43:42.000Z,4.60
2018-06-24T13:46:10.501Z,3.17
2018-06-24T13:48:38.814Z,3.37
2018-06-24T13:51:07.173Z,6.03
2018-06-24T13:53:35.436Z,3.90
2018-06-24T13:56:04.263Z,5.70
2018-06-24T13:58:33.096Z,5.50
2018-06-24T14:01:01.478Z,4.07
2018-06-24T14:03:29.871Z,6.57
2018-06-24T14:05:58.312Z,3.97
2018-06-24T14:08:26.777Z,2.77
2018-06-24T14:10:55.704Z,4.93
2018-06-24T14:13:23.960Z,3.73
2018-06-24T14:15:52.581Z,3.27
2018-06-24T14:18:20.830Z,4.37
2018-06-24T14:20:49.099Z,4.47
2018-06-24T14:23:17.398Z,2.70
2018-06-24T14:25:45.811Z,4.23
2018-06-24T14:28:14.097Z,3.43
2018-06-24T14:30:42.401Z,2.90
2018-06-24T14:33:10.717Z,6.30
2018-06-24T14:35:39.068Z,3.87
2018-06-24T14:38:07.483Z,3.77
2018-06-24T14:40:35.919Z,4.70
2018-06-24T14:43:04.457Z,3.93
2018-06-24T14:45:32.685Z,4.33
2018-06-24T14:48:01.020Z,1.80
2018-06-24T14:50:29.315Z,3.20
2018-06-24T14:52:57.678Z,3.23
2018-06-24T14:55:26.024Z,2.47
2018-06-24T14:57:54.358Z,5.07
2018-06-24T15:00:22.638Z,4.40
2018-06-24T15:02:50.915Z,2.93
2018-06-24T15:05:19.387Z,5.97
2018-06-24T15:07:47.737Z,2.40
2018-06-24T15:10:16.055Z,2.60
2018-06-24T15:12:44.303Z,2.90
2018-06-24T15:15:12.681Z,4.17
2018-06-24T15:17:40.928Z,2.40
2018-06-24T15:20:09.163Z,4.23
2018-06-24T15:22:37.440Z,3.53
2018-06-24T15:25:05.764Z,3.47
2018-06-24T15:27:33.931Z,2.60
2018-06-24T15:30:02.123Z,4.37
2018-06-24T15:32:30.308Z,5.27
2018-06-24T15:34:58.585Z,5.73
2018-06-24T15:37:26.956Z,4.17
2018-06-24T15:39:55.128Z,3.73
2018-06-24T15:42:23.346Z,3.20
2018-06-24T15:44:51.763Z,3.30
2018-06-24T15:47:19.949Z,5.20
2018-06-24T15:49:48.291Z,5.60
2018-06-24T15:52:16.538Z,4.07
2018-06-24T15:54:44.824Z,4.77
2018-06-24T15:57:13.089Z,6.20
2018-06-24T15:59:41.380Z,3.67
2018-06-24T16:02:10.015Z,6.17
2018-06-24T16:04:38.048Z,2.37
2018-06-24T16:07:06.425Z,4.47
2018-06-24T16:09:34.776Z,4.83
2018-06-24T16:12:02.955Z,4.67
2018-06-24T16:14:32.554Z,5.60
2018-06-24T16:17:00.827Z,5.67
2018-06-24T16:19:29.041Z,5.07
2018-06-24T16:21:57.307Z,4.57
2018-06-24T16:24:25.534Z,4.87
2018-06-24T16:26:53.756Z,2.50
2018-06-24T16:29:28.482Z,3.97
2018-06-24T16:31:56.704Z,6.83
2018-06-24T16:34:24.875Z,5.13
2018-06-24T16:36:53.117Z,7.30
2018-06-24T16:39:21.419Z,7.10
2018-06-24T16:41:49.663Z,3.40
2018-06-24T16:44:17.863Z,4.67
2018-06-24T16:46:46.233Z,3.53
2018-06-24T16:49:14.470Z,4.80
2018-06-24T16:51:42.681Z,4.63
2018-06-24T16:54:10.903Z,2.30
2018-06-24T16:56:39.260Z,5.33
2018-06-24T16:59:07.479Z,5.70
2018-06-24T17:01:36.210Z,3.57
2018-06-24T17:04:04.487Z,5.23
2018-06-24T17:06:32.795Z,2.87
2018-06-24T17:09:01.025Z,4.80
2018-06-24T17:11:29.281Z,2.50
2018-06-24T17:13:57.489Z,3.37
2018-06-24T17:16:25.841Z,2.67
2018-06-24T17:18:54.046Z,3.53
2018-06-24T17:21:22.244Z,3.50
2018-06-24T17:23:50.505Z,3.77
2018-06-24T17:26:19.747Z,4.03
2018-06-24T17:28:47.972Z,3.00
2018-06-24T17:31:16.286Z,3.43
2018-06-24T17:33:44.594Z,5.60
2018-06-24T17:36:13.933Z,4.43
2018-06-24T17:38:42.192Z,4.23
2018-06-24T17:41:10.459Z,6.37
2018-06-24T17:43:38.715Z,6.13
2018-06-24T17:46:07.096Z,8.47
2018-06-24T17:48:36.926Z,5.07
2018-06-24T17:51:05.393Z,8.20
2018-06-24T17:53:33.641Z,7.23
2018-06-24T17:56:02.009Z,11.43
2018-06-24T17:58:30.344Z,6.93
2018-06-24T18:00:58.529Z,8.20
2018-06-24T18:03:26.734Z,9.53
2018-06-24T18:05:55.087Z,8.90
2018-06-24T18:08:23.357Z,10.27
2018-06-24T18:10:51.645Z,11.63
2018-06-24T18:13:19.852Z,10.50
2018-06-24T18:15:48.179Z,7.80
2018-06-24T18:18:16.724Z,10.70
2018-06-24T18:20:45.054Z,9.07
2018-06-24T18:23:13.398Z,9.57
2018-06-24T18:25:41.786Z,11.77
2018-06-24T18:28:10.044Z,13.17
2018-06-24T18:30:38.216Z,6.37
2018-06-24T18:33:06.733Z,11.17
2018-06-24T18:35:34.965Z,10.37
2018-06-24T18:38:03.363Z,8.17
2018-06-24T18:40:31.624Z,5.60
2018-06-24T18:42:59.858Z,4.37
2018-06-24T18:45:28.208Z,7.27
2018-06-24T18:47:56.374Z,7.10
2018-06-24T18:50:24.769Z,10.10
2018-06-24T18:52:53.100Z,7.53
2018-06-24T18:55:21.484Z,9.90
2018-06-24T18:57:49.716Z,10.00
2018-06-24T19:00:17.987Z,6.53
2018-06-24T19:02:46.281Z,10.57
2018-06-24T19:05:15.554Z,8.40
2018-06-24T19:07:43.785Z,8.90
2018-06-24T19:10:12.148Z,11.53
2018-06-24T19:12:40.366Z,10.30
2018-06-24T19:15:08.734Z,5.70
2018-06-24T19:17:37.015Z,5.20
2018-06-24T19:20:05.197Z,5.47
2018-06-24T19:22:33.406Z,5.87
2018-06-24T19:25:01.770Z,6.00
2018-06-24T19:27:30.066Z,5.40
2018-06-24T19:29:58.332Z,7.03
2018-06-24T19:32:26.530Z,8.70
2018-06-24T19:34:54.809Z,8.07
2018-06-24T19:37:23.067Z,10.03
2018-06-24T19:39:51.342Z,12.40
2018-06-24T19:42:19.512Z,10.63
2018-06-24T19:44:48.619Z,8.53
2018-06-24T19:47:16.897Z,11.83
2018-06-24T19:49:45.152Z,8.53
2018-06-24T19:52:13.555Z,8.90
2018-06-24T19:55:12.676Z,7.97
2018-06-24T19:57:40.983Z,9.37
2018-06-24T20:00:09.412Z,6.77
2018-06-24T20:02:38.124Z,7.03
2018-06-24T20:05:07.610Z,4.77
2018-06-24T20:07:35.912Z,7.17
2018-06-24T20:10:04.201Z,8.27
2018-06-24T20:12:32.537Z,7.13
2018-06-24T20:15:00.857Z,8.17
2018-06-24T20:17:32.595Z,5.33
2018-06-24T20:20:00.876Z,8.27
2018-06-24T20:22:29.141Z,6.67
2018-06-24T20:24:58.114Z,8.37
2018-06-24T20:27:26.341Z,8.33
2018-06-24T20:29:54.506Z,9.80
2018-06-24T20:32:23.593Z,9.00
2018-06-24T20:34:51.951Z,9.13
2018-06-24T20:37:20.213Z,6.75
2018-06-24T20:39:48.419Z,8.60
2018-06-24T20:42:16.631Z,8.60
2018-06-24T20:44:45.033Z,8.93
2018-06-24T20:47:13.338Z,8.50
2018-06-24T20:49:41.759Z,8.77
2018-06-24T20:52:09.986Z,8.73
2018-06-24T20:54:38.415Z,10.47
2018-06-24T20:57:06.773Z,10.43
2018-06-24T20:59:35.037Z,12.17
2018-06-24T21:02:03.454Z,14.33
2018-06-24T21:04:31.670Z,12.00
2018-06-24T21:06:59.995Z,8.33
2018-06-24T21:09:28.389Z,8.50
2018-06-24T21:12:02.381Z,9.00
2018-06-24T21:14:30.751Z,9.10
2018-06-24T21:16:59.095Z,8.20
2018-06-24T21:19:27.358Z,9.60
2018-06-24T21:21:55.444Z,10.57
2018-06-24T21:24:28.000Z,9.47
2018-06-24T21:26:56.342Z,11.95
2018-06-24T21:29:24.751Z,6.87
2018-06-24T21:31:53.249Z,10.77
2018-06-24T21:34:21.620Z,15.47
2018-06-24T21:36:49.933Z,11.40
2018-06-24T21:39:18.433Z,11.97
2018-06-24T21:41:46.824Z,12.90
2018-06-24T21:46:50.462Z,17.30
2018-06-24T21:49:18.760Z,14.10
2018-06-24T21:51:47.431Z,12.37
2018-06-24T21:54:15.748Z,12.83
2018-06-24T21:56:44.108Z,11.80
2018-06-24T21:59:12.307Z,12.03
2018-06-24T22:01:40.498Z,10.03
2018-06-24T22:04:08.736Z,13.87
2018-06-24T22:06:38.052Z,11.63
2018-06-24T22:09:08.989Z,13.43
2018-06-24T22:11:37.401Z,11.70
2018-06-24T22:14:05.818Z,11.73
2018-06-24T22:16:34.387Z,7.37
2018-06-24T22:19:02.554Z,4.70
2018-06-24T22:21:30.828Z,6.57
2018-06-24T22:23:59.090Z,6.20
2018-06-24T22:26:27.505Z,6.43
2018-06-24T22:28:55.751Z,8.23
2018-06-24T22:31:23.921Z,12.03
2018-06-24T22:33:52.168Z,13.10
2018-06-24T22:36:20.863Z,12.00
2018-06-24T22:38:49.099Z,14.53
2018-06-24T22:41:17.524Z,18.27
2018-06-24T22:43:45.839Z,12.03
2018-06-24T22:46:14.146Z,7.90
2018-06-24T22:48:42.569Z,12.57
2018-06-24T22:51:10.928Z,4.70
2018-06-24T22:53:39.285Z,6.20
2018-06-24T22:56:08.587Z,8.90
2018-06-24T22:58:36.770Z,11.20
2018-06-24T23:01:05.315Z,8.80
2018-06-24T23:03:33.249Z,10.23
2018-06-24T23:06:01.513Z,10.23
2018-06-24T23:08:29.736Z,16.47
2018-06-24T23:10:57.911Z,10.90
2018-06-24T23:13:26.118Z,10.50
2018-06-24T23:15:55.425Z,13.10
2018-06-24T23:18:23.614Z,12.37
2018-06-24T23:20:51.905Z,9.80
2018-06-24T23:23:20.160Z,7.47
2018-06-24T23:25:48.563Z,9.43
2018-06-24T23:28:16.864Z,12.03
2018-06-24T23:30:45.101Z,13.90
2018-06-24T23:33:13.304Z,13.87
2018-06-24T23:35:43.639Z,15.87
2018-06-24T23:38:11.851Z,12.73
2018-06-24T23:40:40.063Z,10.40
2018-06-24T23:43:08.239Z,11.23
2018-06-24T23:45:36.633Z,13.37
2018-06-24T23:48:04.869Z,15.20
2018-06-24T23:50:33.081Z,11.60
2018-06-24T23:53:01.320Z,11.70
2018-06-24T23:55:29.695Z,14.43
2018-06-24T23:57:57.880Z,10.97
